Time;durP1;ratioP1;P1;durP2;ratioP2;P2;SDS_P1;SDS_P2;PMS_P1;PMS_P2;Temp;Humidity;BMP_temperature;BMP_pressure;BME280_temperature;BME280_humidity;BME280_pressure;Samples;Min_cycle;Max_cycle;Signal;HPM_P1;HPM_P2
2022/06/02 00:02:32;;;;;;;3.67;2.20;;;11.90;99.90;;;;;;5123994;28;20206;-73
2022/06/02 00:05:07;;;;;;;3.23;2.63;;;12.20;99.90;;;;;;5139707;28;20357;-74
2022/06/02 00:07:41;;;;;;;3.20;2.20;;;12.40;99.90;;;;;;5131778;28;20224;-74
2022/06/02 00:10:13;;;;;;;3.37;2.13;;;12.60;99.90;;;;;;5129500;28;20233;-74
2022/06/02 00:12:47;;;;;;;2.37;2.00;;;12.70;99.90;;;;;;5121059;28;20195;-73
2022/06/02 00:15:23;;;;;;;3.27;2.30;;;12.90;99.90;;;;;;5121821;28;20230;-74
2022/06/02 00:18:02;;;;;;;2.43;2.17;;;12.80;99.90;;;;;;5121194;28;20248;-74
2022/06/02 00:20:35;;;;;;;2.80;2.30;;;12.80;99.90;;;;;;5116647;28;20503;-74
2022/06/02 00:23:33;;;;;;;2.70;2.20;;;12.80;99.90;;;;;;5116468;28;20598;-74
2022/06/02 00:26:07;;;;;;;5.40;2.07;;;12.60;99.90;;;;;;5112351;28;20265;-74
2022/06/02 00:28:43;;;;;;;2.40;2.20;;;12.60;99.90;;;;;;5123261;28;20263;-72
2022/06/02 00:31:21;;;;;;;2.30;2.10;;;12.60;99.90;;;;;;5124874;28;20603;-74
2022/06/02 00:33:58;;;;;;;3.97;2.40;;;12.40;99.90;;;;;;5117374;28;20195;-75
2022/06/02 00:36:29;;;;;;;3.83;2.17;;;12.40;99.90;;;;;;5116922;28;20199;-74
2022/06/02 00:38:58;;;;;;;2.40;2.20;;;12.30;99.90;;;;;;5116435;28;20196;-75
2022/06/02 00:41:32;;;;;;;3.50;2.27;;;12.10;99.90;;;;;;5116206;28;20200;-74
2022/06/02 00:44:33;;;;;;;2.50;2.30;;;12.00;99.90;;;;;;5116178;28;20651;-74
2022/06/02 00:47:05;;;;;;;3.37;2.30;;;12.10;99.90;;;;;;5115997;28;20204;-74
2022/06/02 00:49:43;;;;;;;8.00;2.57;;;12.10;99.90;;;;;;5116074;28;20245;-74
2022/06/02 00:52:26;;;;;;;10.90;2.47;;;12.00;99.90;;;;;;5115656;28;20202;-74
2022/06/02 00:58:02;;;;;;;2.90;2.70;;;11.80;99.90;;;;;;5116125;28;20657;-74
2022/06/02 01:00:38;;;;;;;3.47;2.90;;;11.80;99.90;;;;;;5116607;28;20196;-74
2022/06/02 01:03:10;;;;;;;3.13;2.70;;;11.80;99.90;;;;;;5115783;28;20199;-74
2022/06/02 01:05:54;;;;;;;4.07;2.77;;;11.80;99.90;;;;;;5115969;28;20199;-74
2022/06/02 01:08:27;;;;;;;3.13;2.40;;;11.70;99.90;;;;;;5115729;28;20192;-74
2022/06/02 01:11:05;;;;;;;3.10;2.80;;;11.50;99.90;;;;;;5115513;28;20301;-75
2022/06/02 01:13:49;;;;;;;2.90;2.60;;;11.50;99.90;;;;;;5115991;28;20207;-74
2022/06/02 01:16:20;;;;;;;2.73;2.53;;;11.50;99.90;;;;;;5116078;28;20227;-74
2022/06/02 01:18:59;;;;;;;5.80;2.80;;;11.30;99.90;;;;;;5125229;28;20727;-73
2022/06/02 01:22:04;;;;;;;2.73;2.43;;;11.30;99.90;;;;;;5117038;28;20301;-73
2022/06/02 01:24:44;;;;;;;3.23;2.70;;;11.30;99.90;;;;;;5099898;28;20203;-74
2022/06/02 01:27:34;;;;;;;3.37;2.70;;;11.10;99.90;;;;;;5098999;28;20210;-73
2022/06/02 01:30:38;;;;;;;4.20;2.80;;;11.10;99.90;;;;;;5115883;28;20200;-74
2022/06/02 01:33:13;;;;;;;3.07;2.83;;;11.10;99.90;;;;;;5115706;28;20600;-73
2022/06/02 01:35:49;;;;;;;2.93;2.50;;;11.00;99.90;;;;;;5115651;28;20701;-73
2022/06/02 01:38:21;;;;;;;3.03;2.77;;;10.80;99.90;;;;;;5115431;28;20248;-73
2022/06/02 01:41:03;;;;;;;3.60;2.87;;;10.90;99.90;;;;;;5115507;28;20199;-73
2022/06/02 01:43:40;;;;;;;3.17;2.87;;;10.80;99.90;;;;;;5115429;28;20191;-73
2022/06/02 01:46:27;;;;;;;3.17;2.90;;;10.60;99.90;;;;;;5115338;28;20206;-73
2022/06/02 01:49:06;;;;;;;3.63;2.97;;;10.50;99.90;;;;;;5115310;28;20248;-74
2022/06/02 01:51:43;;;;;;;3.73;2.90;;;10.40;99.90;;;;;;5115722;28;20263;-73
2022/06/02 01:54:23;;;;;;;2.90;2.67;;;10.40;99.90;;;;;;5115381;28;20195;-74
2022/06/02 01:57:00;;;;;;;4.90;3.20;;;10.50;99.90;;;;;;5114808;28;20256;-74
2022/06/02 01:59:42;;;;;;;2.73;2.50;;;10.60;99.90;;;;;;5114833;28;20338;-74
2022/06/02 02:02:17;;;;;;;3.57;2.90;;;10.60;99.90;;;;;;5114698;28;20244;-73
2022/06/02 02:05:23;;;;;;;4.47;3.23;;;10.60;99.90;;;;;;5113942;28;20227;-74
2022/06/02 02:08:04;;;;;;;5.03;3.00;;;10.60;99.90;;;;;;5079781;28;20647;-74
2022/06/02 02:10:39;;;;;;;3.20;2.90;;;10.60;99.90;;;;;;5114512;28;20207;-74
2022/06/02 02:13:23;;;;;;;3.30;3.00;;;10.60;99.90;;;;;;5114355;28;20199;-74
2022/06/02 02:15:57;;;;;;;3.33;3.00;;;10.60;99.90;;;;;;5114297;28;20228;-73
2022/06/02 02:18:40;;;;;;;4.97;3.23;;;10.60;99.90;;;;;;5114648;28;20203;-74
2022/06/02 02:21:19;;;;;;;4.27;2.90;;;10.60;99.90;;;;;;5114376;28;20208;-74
2022/06/02 02:23:56;;;;;;;3.63;3.00;;;10.70;99.90;;;;;;5114322;28;20203;-74
2022/06/02 02:26:28;;;;;;;3.77;2.97;;;10.70;99.90;;;;;;5114306;28;20222;-74
2022/06/02 02:29:05;;;;;;;3.70;3.30;;;10.60;99.90;;;;;;5114279;28;20199;-74
2022/06/02 02:31:41;;;;;;;3.27;2.97;;;10.30;99.90;;;;;;5117185;28;20306;-73
2022/06/02 02:34:18;;;;;;;3.40;3.10;;;10.20;99.90;;;;;;5123485;28;20200;-73
2022/06/02 02:36:55;;;;;;;3.53;3.13;;;10.20;99.90;;;;;;5114382;28;20257;-72
2022/06/02 02:39:30;;;;;;;6.37;3.47;;;10.10;99.90;;;;;;5114140;28;20199;-72
2022/06/02 02:42:01;;;;;;;4.00;3.57;;;9.90;99.90;;;;;;5113976;28;20229;-73
2022/06/02 02:44:36;;;;;;;3.73;3.43;;;10.00;99.90;;;;;;5113737;28;20245;-73
2022/06/02 02:47:09;;;;;;;5.60;3.50;;;10.00;99.90;;;;;;5113735;28;20199;-73
2022/06/02 02:49:42;;;;;;;4.20;3.80;;;9.90;99.90;;;;;;5113914;28;20248;-73
2022/06/02 02:52:16;;;;;;;3.60;3.30;;;9.90;99.90;;;;;;5113912;28;20563;-73
2022/06/02 02:54:49;;;;;;;4.10;3.60;;;10.00;99.90;;;;;;5113662;28;20214;-72
2022/06/02 02:57:21;;;;;;;3.60;3.30;;;9.90;99.90;;;;;;5113499;28;20316;-72
2022/06/02 02:59:54;;;;;;;4.00;3.67;;;9.80;99.90;;;;;;5113814;28;20286;-73
2022/06/02 03:02:28;;;;;;;5.30;4.13;;;9.60;99.90;;;;;;5113589;28;20219;-73
2022/06/02 03:05:03;;;;;;;4.17;3.77;;;9.50;99.90;;;;;;5113201;28;20235;-73
2022/06/02 03:07:32;;;;;;;6.20;4.10;;;9.40;99.90;;;;;;5113437;28;20210;-72
2022/06/02 03:10:05;;;;;;;4.43;3.93;;;9.20;99.90;;;;;;5113682;28;20204;-74
2022/06/02 03:12:55;;;;;;;5.60;4.47;;;9.20;99.90;;;;;;5113895;28;20268;-73
2022/06/02 03:15:28;;;;;;;6.03;4.83;;;9.00;99.90;;;;;;5113574;28;20223;-73
2022/06/02 03:18:13;;;;;;;4.80;4.40;;;8.90;99.90;;;;;;5113500;28;20195;-72
2022/06/02 03:20:52;;;;;;;7.30;4.70;;;9.00;99.90;;;;;;5125768;28;20203;-72
2022/06/02 03:23:46;;;;;;;5.47;4.20;;;8.90;99.90;;;;;;5138066;28;20195;-71
2022/06/02 03:26:23;;;;;;;5.07;4.20;;;8.80;99.90;;;;;;5104288;28;20241;-72
2022/06/02 03:28:56;;;;;;;6.07;4.63;;;8.90;99.90;;;;;;5138221;28;20179;-72
2022/06/02 03:31:32;;;;;;;5.10;4.53;;;8.90;99.90;;;;;;5126991;28;20213;-72
2022/06/02 03:34:12;;;;;;;6.23;4.70;;;8.90;99.90;;;;;;5113376;28;20210;-72
2022/06/02 03:36:59;;;;;;;4.63;4.23;;;8.90;99.90;;;;;;5113104;28;20227;-73
2022/06/02 03:39:46;;;;;;;6.00;4.43;;;8.90;99.90;;;;;;5113271;28;20204;-73
2022/06/02 03:42:27;;;;;;;4.70;4.30;;;8.90;99.90;;;;;;5113133;28;20244;-73
2022/06/02 03:45:10;;;;;;;6.43;5.00;;;8.90;99.90;;;;;;5113029;28;20607;-74
2022/06/02 03:47:54;;;;;;;4.93;4.23;;;8.90;99.90;;;;;;5112927;28;20200;-74
2022/06/02 03:50:44;;;;;;;6.03;4.97;;;8.80;99.90;;;;;;5113126;28;20206;-72
2022/06/02 03:53:27;;;;;;;8.07;4.73;;;8.80;99.90;;;;;;5105826;28;20199;-72
2022/06/02 03:56:03;;;;;;;5.07;4.53;;;8.80;99.90;;;;;;5113284;28;20227;-73
2022/06/02 03:58:47;;;;;;;5.47;4.70;;;8.70;99.90;;;;;;5113047;28;20195;-73
2022/06/02 04:01:20;;;;;;;5.87;4.43;;;8.70;99.90;;;;;;5113092;28;20252;-72
2022/06/02 04:04:06;;;;;;;5.37;4.60;;;8.50;99.90;;;;;;5112741;28;20227;-73
2022/06/02 04:06:41;;;;;;;6.07;4.77;;;8.40;99.90;;;;;;5112929;28;20252;-73
2022/06/02 04:09:21;;;;;;;5.53;5.03;;;8.30;99.90;;;;;;5113033;28;20195;-73
2022/06/02 04:15:25;;;;;;;5.30;4.80;;;8.40;99.90;;;;;;5079258;28;20210;-72
2022/06/02 04:18:01;;;;;;;5.60;4.97;;;8.30;99.90;;;;;;5113012;28;20241;-73
2022/06/02 04:20:47;;;;;;;5.50;4.97;;;8.60;99.90;;;;;;5112854;28;20200;-73
2022/06/02 04:23:27;;;;;;;8.80;5.00;;;8.70;99.90;;;;;;5112726;28;20655;-73
2022/06/02 04:26:02;;;;;;;5.63;4.27;;;8.70;99.90;;;;;;5112912;28;20211;-73
2022/06/02 04:28:41;;;;;;;6.80;4.77;;;8.90;99.90;;;;;;5115422;28;20602;-73
2022/06/02 04:31:24;;;;;;;5.90;4.50;;;9.00;99.90;;;;;;5116351;28;20240;-73
2022/06/02 04:33:57;;;;;;;4.67;4.27;;;9.10;99.90;;;;;;5116639;28;20245;-73
2022/06/02 04:36:33;;;;;;;5.33;4.50;;;9.20;99.90;;;;;;5116412;28;20219;-73
2022/06/02 04:39:18;;;;;;;5.17;4.70;;;9.30;99.90;;;;;;5116377;28;20191;-73
2022/06/02 04:41:55;;;;;;;6.73;4.27;;;9.50;99.90;;;;;;5116432;28;20207;-74
2022/06/02 04:44:35;;;;;;;6.07;4.90;;;9.60;99.90;;;;;;5116241;28;20203;-75
2022/06/02 04:47:22;;;;;;;5.73;4.13;;;9.70;99.90;;;;;;5116299;28;20248;-74
2022/06/02 04:49:58;;;;;;;5.03;4.50;;;9.70;99.90;;;;;;5116109;28;20278;-74
2022/06/02 04:52:30;;;;;;;5.10;4.17;;;9.80;99.90;;;;;;5116406;28;20206;-74
2022/06/02 04:55:07;;;;;;;7.20;4.40;;;9.90;99.90;;;;;;5116106;28;20253;-74
2022/06/02 04:57:40;;;;;;;6.67;4.50;;;10.00;99.90;;;;;;5116225;28;20253;-74
2022/06/02 05:00:22;;;;;;;4.83;4.33;;;10.00;99.90;;;;;;5123536;28;20586;-74
2022/06/02 05:02:58;;;;;;;7.70;4.10;;;10.10;99.90;;;;;;5123568;28;20257;-74
2022/06/02 05:05:34;;;;;;;6.53;4.17;;;10.10;99.90;;;;;;5113895;28;20199;-74
2022/06/02 05:08:30;;;;;;;5.40;4.33;;;10.00;99.90;;;;;;5113907;28;20350;-75
2022/06/02 05:11:08;;;;;;;5.30;4.50;;;10.10;99.90;;;;;;5114298;28;20275;-73
2022/06/02 05:13:44;;;;;;;4.30;3.90;;;10.20;99.90;;;;;;5115921;28;20723;-78
2022/06/02 05:16:19;;;;;;;10.00;4.33;;;10.30;99.90;;;;;;5115628;28;20223;-73
2022/06/02 05:19:11;;;;;;;6.47;4.23;;;10.50;99.90;;;;;;5115360;28;20729;-74
2022/06/02 05:22:08;;;;;;;4.60;4.20;;;10.60;99.90;;;;;;5112799;28;20192;-73
2022/06/02 05:25:05;;;;;;;5.10;4.30;;;10.70;99.90;;;;;;5084245;28;20208;-74
2022/06/02 05:27:50;;;;;;;4.90;4.30;;;10.90;99.90;;;;;;5115432;28;20252;-74
2022/06/02 05:30:43;;;;;;;5.03;4.60;;;11.00;99.90;;;;;;5115417;28;20195;-74
2022/06/02 05:33:33;;;;;;;4.50;4.10;;;11.20;99.90;;;;;;5115357;28;20199;-75
2022/06/02 05:36:38;;;;;;;4.53;4.10;;;11.30;99.90;;;;;;5115064;28;20601;-75
2022/06/02 05:39:43;;;;;;;4.80;4.03;;;11.40;99.90;;;;;;5088039;28;20203;-74
2022/06/02 05:42:20;;;;;;;4.87;3.80;;;11.60;99.90;;;;;;5109593;28;20215;-74
2022/06/02 05:45:09;;;;;;;3.97;3.60;;;11.80;99.90;;;;;;5120172;27;20584;-75
2022/06/02 05:47:57;;;;;;;4.47;3.60;;;11.90;99.90;;;;;;5129124;27;20191;-75
2022/06/02 05:50:33;;;;;;;4.20;3.80;;;12.10;99.90;;;;;;5134482;27;20670;-73
2022/06/02 05:53:10;;;;;;;4.97;3.50;;;12.30;99.90;;;;;;5134941;27;20220;-75
2022/06/02 05:55:51;;;;;;;5.57;3.53;;;12.30;99.90;;;;;;5133997;27;20210;-75
2022/06/02 05:58:38;;;;;;;3.50;3.20;;;12.50;99.90;;;;;;5135120;27;20581;-73
2022/06/02 06:01:16;;;;;;;3.53;2.90;;;12.60;99.90;;;;;;5135361;27;20194;-72
2022/06/02 06:03:57;;;;;;;5.23;3.20;;;12.80;99.90;;;;;;5135089;27;20271;-75
2022/06/02 06:06:32;;;;;;;4.27;3.23;;;12.80;99.90;;;;;;5135208;27;20592;-74
2022/06/02 06:09:15;;;;;;;3.27;2.90;;;13.00;99.90;;;;;;5133586;27;20190;-75
2022/06/02 06:12:24;;;;;;;4.00;2.57;;;13.00;99.90;;;;;;5135563;27;20217;-74
2022/06/02 06:15:00;;;;;;;3.00;2.67;;;13.00;99.90;;;;;;5051601;28;20649;-75
2022/06/02 06:17:36;;;;;;;3.50;3.13;;;13.10;99.90;;;;;;5119764;27;20227;-78
2022/06/02 06:20:09;;;;;;;4.07;2.80;;;13.10;99.90;;;;;;5135099;27;20195;-75
2022/06/02 06:23:08;;;;;;;3.13;2.73;;;13.30;99.90;;;;;;5135177;27;20199;-75
2022/06/02 06:25:51;;;;;;;3.03;2.73;;;13.40;99.90;;;;;;5134822;27;20199;-76
2022/06/02 06:28:20;;;;;;;4.00;2.77;;;13.50;99.90;;;;;;5134946;27;20191;-76
2022/06/02 06:31:00;;;;;;;2.73;2.53;;;13.60;99.90;;;;;;5134686;27;20198;-75
2022/06/02 06:33:47;;;;;;;5.67;3.00;;;13.80;99.90;;;;;;5140831;27;20195;-75
2022/06/02 06:36:29;;;;;;;4.17;2.60;;;13.90;99.90;;;;;;5152089;27;20218;-75
2022/06/02 06:39:05;;;;;;;3.13;2.77;;;13.80;99.90;;;;;;5153629;27;20199;-76
2022/06/02 06:41:53;;;;;;;2.90;2.70;;;13.90;99.90;;;;;;5152044;27;20194;-76
2022/06/02 06:44:27;;;;;;;3.27;2.97;;;13.90;99.90;;;;;;5155264;27;20179;-76
2022/06/02 06:47:00;;;;;;;2.90;2.70;;;14.00;99.90;;;;;;5145277;27;20206;-75
2022/06/02 06:49:37;;;;;;;4.27;2.67;;;14.10;99.90;;;;;;5147370;27;20195;-75
2022/06/02 06:52:34;;;;;;;3.57;2.60;;;14.10;99.90;;;;;;5136461;27;20224;-75
2022/06/02 06:55:11;;;;;;;4.57;2.50;;;14.20;99.90;;;;;;5134569;27;20596;-75
2022/06/02 06:57:49;;;;;;;2.60;2.40;;;14.30;99.90;;;;;;5134325;27;20226;-75
2022/06/02 07:00:21;;;;;;;3.17;2.87;;;14.30;99.90;;;;;;5134501;27;20201;-75
2022/06/02 07:03:03;;;;;;;2.80;2.43;;;14.40;99.90;;;;;;5134346;27;20198;-75
2022/06/02 07:05:37;;;;;;;2.67;2.47;;;14.40;99.90;;;;;;5134590;27;20187;-74
2022/06/02 07:08:12;;;;;;;3.53;2.80;;;14.60;99.90;;;;;;5099030;27;20227;-75
2022/06/02 07:10:46;;;;;;;3.83;2.50;;;14.60;99.90;;;;;;5134267;27;20665;-75
2022/06/02 07:13:22;;;;;;;4.33;2.57;;;14.70;99.90;;;;;;5134234;27;20303;-75
2022/06/02 07:15:54;;;;;;;3.37;2.60;;;14.70;99.90;;;;;;5133993;27;20680;-75
2022/06/02 07:18:39;;;;;;;3.83;2.70;;;14.80;99.90;;;;;;5134140;27;20544;-75
2022/06/02 07:21:19;;;;;;;2.80;2.60;;;14.90;99.90;;;;;;5134033;27;20343;-75
2022/06/02 07:23:55;;;;;;;2.50;2.30;;;14.80;99.90;;;;;;5134221;27;20186;-75
2022/06/02 07:26:35;;;;;;;4.97;2.43;;;14.80;99.90;;;;;;5133854;27;20211;-75
2022/06/02 07:29:13;;;;;;;2.70;2.20;;;14.80;99.90;;;;;;5134002;27;20198;-76
2022/06/02 07:31:56;;;;;;;2.57;2.33;;;15.00;99.90;;;;;;5133799;27;20296;-75
2022/06/02 07:34:40;;;;;;;3.27;2.53;;;15.10;99.90;;;;;;5115194;28;20201;-75
2022/06/02 07:37:25;;;;;;;4.67;2.10;;;14.80;99.90;;;;;;5133803;28;20297;-75
2022/06/02 07:40:28;;;;;;;2.40;2.20;;;15.00;99.90;;;;;;5133844;28;20198;-76
2022/06/02 07:43:33;;;;;;;3.03;2.20;;;15.30;99.90;;;;;;5119826;28;20349;-75
2022/06/02 07:46:17;;;;;;;2.50;2.27;;;15.50;99.90;;;;;;5133556;28;20198;-75
2022/06/02 07:49:12;;;;;;;1.90;1.80;;;15.60;99.90;;;;;;5133459;28;20735;-75
2022/06/02 07:51:42;;;;;;;4.13;2.17;;;16.00;98.60;;;;;;5133899;28;20595;-75
2022/06/02 07:54:22;;;;;;;3.43;2.40;;;16.20;97.00;;;;;;5133507;28;20191;-75
2022/06/02 07:57:07;;;;;;;3.30;2.10;;;16.00;91.10;;;;;;5132796;28;20590;-75
2022/06/02 07:59:53;;;;;;;5.93;2.60;;;15.80;93.00;;;;;;5133338;28;20642;-75
2022/06/02 08:02:58;;;;;;;2.88;2.45;;;16.10;94.50;;;;;;5134427;27;20286;-75
2022/06/02 08:05:39;;;;;;;3.03;2.73;;;16.30;94.50;;;;;;5094423;27;20573;-75
2022/06/02 08:08:15;;;;;;;2.60;2.40;;;16.20;92.80;;;;;;5137643;27;20255;-75
2022/06/02 08:10:56;;;;;;;2.87;2.47;;;16.30;93.70;;;;;;5137596;27;20289;-76
2022/06/02 08:13:30;;;;;;;17.77;3.22;;;16.40;95.20;;;;;;5137503;27;20199;-76
2022/06/02 08:16:07;;;;;;;84.20;6.55;;;17.10;93.60;;;;;;5136446;27;20307;-77
2022/06/02 08:18:48;;;;;;;4.75;2.20;;;17.40;90.90;;;;;;5125994;27;20266;-77
2022/06/02 08:21:25;;;;;;;2.30;2.10;;;17.50;89.30;;;;;;5135362;27;20195;-76
2022/06/02 08:24:15;;;;;;;1.95;1.75;;;17.70;85.70;;;;;;5136224;27;20552;-75
2022/06/02 08:26:52;;;;;;;3.33;2.20;;;17.90;80.10;;;;;;5137171;27;20255;-76
2022/06/02 08:29:29;;;;;;;2.30;2.00;;;18.10;81.50;;;;;;5137128;27;20248;-75
2022/06/02 08:32:06;;;;;;;3.13;2.30;;;18.30;77.20;;;;;;5137064;27;20722;-75
2022/06/02 08:34:42;;;;;;;2.47;1.80;;;18.60;72.10;;;;;;5136530;27;20712;-75
2022/06/02 08:37:16;;;;;;;9.75;8.27;;;18.80;69.90;;;;;;5136815;27;20214;-75
2022/06/02 08:40:02;;;;;;;8.27;2.00;;;18.60;64.20;;;;;;5119275;27;20195;-75
2022/06/02 08:43:12;;;;;;;3.72;2.20;;;18.60;63.30;;;;;;5136807;27;20199;-75
2022/06/02 08:45:54;;;;;;;2.78;1.73;;;19.10;61.10;;;;;;5136450;27;20198;-74
2022/06/02 08:48:57;;;;;;;2.30;2.05;;;19.30;60.20;;;;;;5136611;27;20195;-75
2022/06/02 08:52:15;;;;;;;1.95;1.85;;;19.80;61.30;;;;;;5135620;27;20212;-76
2022/06/02 08:55:34;;;;;;;5.47;2.33;;;20.10;55.50;;;;;;5133038;27;20222;-75
2022/06/02 08:58:32;;;;;;;2.50;2.30;;;20.40;55.00;;;;;;5135734;27;20256;-75
2022/06/02 09:01:11;;;;;;;3.78;1.80;;;20.40;53.00;;;;;;5135982;27;20199;-75
2022/06/02 09:04:13;;;;;;;3.03;1.90;;;20.60;50.40;;;;;;5135724;27;20223;-75
2022/06/02 09:07:03;;;;;;;1.90;1.70;;;20.20;47.80;;;;;;5129687;27;20195;-75
2022/06/02 09:10:03;;;;;;;1.70;1.60;;;20.30;47.60;;;;;;5128121;27;20274;-81
2022/06/02 09:12:56;;;;;;;2.30;1.70;;;20.40;47.60;;;;;;5130129;27;20195;-81
2022/06/02 09:15:46;;;;;;;2.17;1.60;;;21.00;48.20;;;;;;5135123;27;20194;-80
2022/06/02 09:18:18;;;;;;;2.55;1.80;;;21.20;46.30;;;;;;5135980;27;20664;-84
2022/06/02 09:20:50;;;;;;;3.80;1.42;;;21.50;44.90;;;;;;5135648;27;20194;-85
2022/06/02 09:23:48;;;;;;;3.58;1.63;;;21.50;43.50;;;;;;5136896;27;20211;-85
2022/06/02 09:26:29;;;;;;;3.30;1.60;;;21.10;42.40;;;;;;5121619;27;20224;-86
2022/06/02 09:29:14;;;;;;;4.32;1.90;;;21.40;42.10;;;;;;5137598;27;20198;-86
2022/06/02 09:32:17;;;;;;;2.92;1.45;;;22.00;42.80;;;;;;5129826;27;20198;-84
2022/06/02 09:35:01;;;;;;;2.15;1.50;;;22.70;40.80;;;;;;5131658;27;20220;-83
2022/06/02 09:37:52;;;;;;;1.88;1.63;;;22.90;38.90;;;;;;5135232;27;20226;-83
2022/06/02 09:40:44;;;;;;;2.47;1.70;;;23.20;37.30;;;;;;5121547;27;20191;-83
2022/06/02 09:43:42;;;;;;;2.03;1.75;;;23.30;36.50;;;;;;5135885;27;20300;-81
2022/06/02 09:46:32;;;;;;;1.70;1.60;;;23.40;34.70;;;;;;5137371;27;20195;-81
2022/06/02 09:49:13;;;;;;;2.40;1.48;;;22.60;33.90;;;;;;5161128;27;20183;-83
2022/06/02 09:51:56;;;;;;;1.90;1.50;;;23.00;35.90;;;;;;5161280;27;20295;-82
2022/06/02 09:54:47;;;;;;;1.50;1.40;;;22.90;35.40;;;;;;5161040;27;20194;-84
2022/06/02 10:00:41;;;;;;;1.95;1.42;;;22.00;34.50;;;;;;5161080;27;20182;-84
2022/06/02 10:03:25;;;;;;;2.17;1.52;;;23.10;35.90;;;;;;5131800;27;20250;-83
2022/06/02 10:06:07;;;;;;;1.73;1.38;;;23.90;34.30;;;;;;5137101;27;20251;-81
2022/06/02 10:08:45;;;;;;;3.03;1.48;;;24.30;32.70;;;;;;5135624;27;20627;-81
2022/06/02 10:11:21;;;;;;;4.22;1.70;;;24.80;32.20;;;;;;5135075;27;20195;-82
2022/06/02 10:14:11;;;;;;;3.05;1.50;;;25.20;31.00;;;;;;5135301;27;20195;-84
2022/06/02 10:17:18;;;;;;;1.45;1.35;;;26.00;29.60;;;;;;5135110;27;20191;-82
2022/06/02 10:20:12;;;;;;;2.00;1.77;;;26.30;29.40;;;;;;5127569;27;20198;-82
2022/06/02 10:22:51;;;;;;;3.72;1.33;;;25.30;26.30;;;;;;5135137;27;20195;-83
2022/06/02 10:25:48;;;;;;;3.17;1.17;;;25.30;28.90;;;;;;5121098;27;20195;-84
2022/06/02 10:28:55;;;;;;;2.45;1.40;;;24.40;28.20;;;;;;5119720;27;20191;-88
2022/06/02 10:32:02;;;;;;;2.22;1.45;;;24.90;28.80;;;;;;5116223;27;20202;-86
2022/06/02 10:35:07;;;;;;;1.30;1.20;;;25.90;27.60;;;;;;5108547;27;20207;-88
2022/06/02 10:38:11;;;;;;;3.13;1.40;;;26.70;27.00;;;;;;5128724;27;20325;-87
2022/06/02 10:40:58;;;;;;;3.55;1.40;;;27.60;25.90;;;;;;5134390;27;20221;-87
2022/06/02 10:43:51;;;;;;;2.33;1.60;;;28.20;23.80;;;;;;5137616;27;20206;-87
2022/06/02 10:47:04;;;;;;;1.70;1.45;;;27.60;23.10;;;;;;5136820;27;20298;-86
2022/06/02 10:49:38;;;;;;;2.60;1.40;;;26.20;24.00;;;;;;5055668;28;20592;-88
2022/06/02 10:52:46;;;;;;;3.60;1.80;;;26.10;23.10;;;;;;5123379;27;20278;-87
2022/06/02 10:55:50;;;;;;;2.25;1.45;;;25.40;24.70;;;;;;5138982;27;20199;-87
2022/06/02 10:58:49;;;;;;;1.50;1.40;;;26.80;23.80;;;;;;5119815;27;20246;-88
2022/06/02 11:02:07;;;;;;;2.15;1.60;;;28.00;22.50;;;;;;5116644;28;20287;-88
2022/06/02 11:05:12;;;;;;;1.33;1.23;;;27.90;21.90;;;;;;5115839;28;20227;-86
2022/06/02 11:08:17;;;;;;;2.75;1.42;;;26.40;22.40;;;;;;5091883;28;20225;-86
2022/06/02 11:11:03;;;;;;;2.03;1.20;;;26.30;22.60;;;;;;5098342;28;20624;-88
2022/06/02 11:13:52;;;;;;;2.65;1.25;;;27.10;21.90;;;;;;5137887;28;20241;-88
2022/06/02 11:16:55;;;;;;;1.60;1.27;;;27.60;21.90;;;;;;5137822;28;20179;-89
2022/06/02 11:19:59;;;;;;;1.42;1.30;;;28.70;21.20;;;;;;5115949;28;20574;-88
2022/06/02 11:22:50;;;;;;;1.73;1.30;;;29.20;20.60;;;;;;5115396;28;20271;-89
2022/06/02 11:25:49;;;;;;;2.38;1.27;;;30.40;19.60;;;;;;5115704;28;20308;-88
2022/06/02 11:29:01;;;;;;;1.60;1.33;;;30.80;17.90;;;;;;5115236;28;20539;-82
2022/06/02 11:31:48;;;;;;;2.53;1.50;;;29.30;18.40;;;;;;5116044;28;20231;-87
2022/06/02 11:34:43;;;;;;;3.05;1.38;;;28.20;19.70;;;;;;5116561;28;20195;-89
2022/06/02 11:37:40;;;;;;;1.40;1.30;;;29.00;20.40;;;;;;5117145;28;20191;-87
2022/06/02 11:40:27;;;;;;;2.08;1.40;;;30.10;18.90;;;;;;5129757;28;20202;-87
2022/06/02 11:43:06;;;;;;;1.50;1.40;;;28.90;19.20;;;;;;5138949;28;20198;-86
2022/06/02 11:46:09;;;;;;;2.05;1.40;;;29.70;19.20;;;;;;5138661;28;20212;-87
2022/06/02 11:48:59;;;;;;;2.45;1.42;;;29.90;18.40;;;;;;5108532;28;20202;-79
2022/06/02 11:51:41;;;;;;;3.05;1.40;;;28.20;19.90;;;;;;5113288;28;20240;-76
2022/06/02 11:54:28;;;;;;;2.25;1.30;;;27.50;19.80;;;;;;5112633;28;20196;-76
2022/06/02 11:57:12;;;;;;;3.58;1.48;;;27.70;20.10;;;;;;5112985;28;20199;-76
2022/06/02 12:00:18;;;;;;;3.55;1.40;;;28.40;19.40;;;;;;5113242;28;20248;-76
2022/06/02 12:03:06;;;;;;;3.47;1.50;;;28.60;19.30;;;;;;5113361;28;20248;-76
2022/06/02 12:06:04;;;;;;;3.97;1.42;;;28.90;19.70;;;;;;5072543;28;20283;-76
2022/06/02 12:09:21;;;;;;;1.90;1.42;;;30.00;19.10;;;;;;5072633;28;20250;-76
2022/06/02 12:11:56;;;;;;;1.50;1.30;;;30.40;17.90;;;;;;4990754;28;20590;-76
2022/06/02 12:14:35;;;;;;;2.00;1.30;;;31.10;18.20;;;;;;4990767;28;20563;-76
2022/06/02 12:17:12;;;;;;;1.95;1.25;;;31.90;16.70;;;;;;5038008;28;20203;-76
2022/06/02 12:20:02;;;;;;;4.28;1.30;;;32.40;16.50;;;;;;5072343;28;20234;-76
2022/06/02 12:22:56;;;;;;;1.90;1.27;;;33.40;16.00;;;;;;5072150;28;20564;-76
2022/06/02 12:25:36;;;;;;;1.85;1.30;;;33.70;15.20;;;;;;5072353;28;20258;-77
2022/06/02 12:28:34;;;;;;;1.30;1.20;;;34.50;15.00;;;;;;5072208;28;20578;-76
2022/06/02 12:31:27;;;;;;;1.58;1.30;;;34.30;13.50;;;;;;5067014;28;20250;-76
2022/06/02 12:34:12;;;;;;;2.70;1.38;;;34.50;13.10;;;;;;5072423;28;20205;-77
2022/06/02 12:36:55;;;;;;;1.92;1.50;;;34.70;13.00;;;;;;5072264;28;20591;-76
2022/06/02 12:39:41;;;;;;;4.95;1.30;;;34.60;13.00;;;;;;5072224;28;20599;-76
2022/06/02 12:42:37;;;;;;;1.20;1.10;;;33.50;13.30;;;;;;5072415;28;20196;-77
2022/06/02 12:45:32;;;;;;;1.60;1.40;;;33.90;13.20;;;;;;5071943;28;20261;-77
2022/06/02 12:48:32;;;;;;;3.50;1.45;;;33.90;13.20;;;;;;5072278;28;20618;-76
2022/06/02 12:51:07;;;;;;;2.85;1.60;;;32.10;13.10;;;;;;5075514;28;20204;-77
2022/06/02 12:54:01;;;;;;;2.08;1.40;;;32.70;14.20;;;;;;5075770;28;20233;-76
2022/06/02 12:56:55;;;;;;;2.05;1.63;;;31.60;14.50;;;;;;5075500;28;20265;-76
2022/06/02 12:59:47;;;;;;;2.10;1.70;;;32.40;14.20;;;;;;5075555;28;20197;-76
2022/06/02 13:02:23;;;;;;;1.67;1.52;;;32.40;14.50;;;;;;5078464;28;20201;-76
2022/06/02 13:05:20;;;;;;;3.28;1.42;;;33.10;14.20;;;;;;5123778;28;20223;-75
2022/06/02 13:08:35;;;;;;;4.28;1.42;;;33.50;13.60;;;;;;5120502;28;20252;-75
2022/06/02 13:11:26;;;;;;;1.67;1.48;;;32.50;12.90;;;;;;5121121;28;20202;-75
2022/06/02 13:14:18;;;;;;;3.33;1.52;;;31.10;14.40;;;;;;5118692;28;20191;-75
2022/06/02 13:17:05;;;;;;;2.17;1.50;;;31.90;14.10;;;;;;5117929;28;20605;-76
2022/06/02 13:19:51;;;;;;;1.60;1.40;;;31.50;13.80;;;;;;5117182;28;20380;-79
2022/06/02 13:22:50;;;;;;;2.70;1.50;;;31.90;14.70;;;;;;5117992;28;20248;-78
2022/06/02 13:26:03;;;;;;;2.28;1.50;;;32.40;14.00;;;;;;5115833;28;20550;-76
2022/06/02 13:29:30;;;;;;;2.90;1.48;;;33.30;14.00;;;;;;5098989;27;20623;-78
2022/06/02 13:32:17;;;;;;;2.03;1.52;;;33.40;13.60;;;;;;5115303;28;20226;-78
2022/06/02 13:35:35;;;;;;;3.20;1.48;;;32.10;14.30;;;;;;5115117;28;20312;-77
2022/06/02 13:38:38;;;;;;;2.90;1.30;;;31.30;15.60;;;;;;5114986;28;20743;-78
2022/06/02 13:41:28;;;;;;;1.92;1.60;;;31.70;15.20;;;;;;5115581;28;20244;-78
2022/06/02 13:44:32;;;;;;;1.60;1.50;;;32.30;14.80;;;;;;5118021;28;20720;-77
2022/06/02 13:47:30;;;;;;;1.52;1.42;;;29.90;15.90;;;;;;5121288;28;20294;-77
2022/06/02 13:50:32;;;;;;;2.00;1.60;;;30.40;15.70;;;;;;5042079;28;20221;-77
2022/06/02 13:53:34;;;;;;;4.38;1.50;;;30.90;16.10;;;;;;5115401;28;20251;-77
2022/06/02 13:59:35;;;;;;;2.05;1.42;;;31.60;15.70;;;;;;5114701;28;20202;-78
2022/06/02 14:02:30;;;;;;;3.80;1.55;;;31.50;15.30;;;;;;5130347;27;20226;-76
2022/06/02 14:05:12;;;;;;;2.45;1.50;;;31.60;15.20;;;;;;5134316;27;20630;-76
2022/06/02 14:07:57;;;;;;;2.47;1.60;;;31.70;15.30;;;;;;5135084;27;20205;-77
2022/06/02 14:10:35;;;;;;;2.05;1.45;;;32.00;14.70;;;;;;5134567;27;20194;-77
2022/06/02 14:13:34;;;;;;;2.25;1.40;;;32.10;14.90;;;;;;5135015;27;20198;-77
2022/06/02 14:16:10;;;;;;;1.50;1.40;;;32.70;14.40;;;;;;5118150;27;20244;-78
2022/06/02 14:19:02;;;;;;;2.63;1.30;;;34.10;14.20;;;;;;5114290;28;20199;-78
2022/06/02 14:21:41;;;;;;;2.35;1.60;;;34.50;12.40;;;;;;5131435;27;20202;-77
2022/06/02 14:24:11;;;;;;;1.40;1.30;;;32.00;13.60;;;;;;5134938;27;20199;-77
2022/06/02 14:27:01;;;;;;;4.80;1.63;;;31.20;14.90;;;;;;5131038;27;20199;-77
2022/06/02 14:29:37;;;;;;;3.55;1.50;;;30.00;15.70;;;;;;5114142;28;20227;-77
2022/06/02 14:32:21;;;;;;;1.95;1.40;;;31.70;15.40;;;;;;5114536;28;20201;-77
2022/06/02 14:35:14;;;;;;;1.77;1.50;;;32.60;14.00;;;;;;5119503;27;20694;-77